sensor_id;sensor_type;location;lat;lon;timestamp;P1;durP1;ratioP1;P2;durP2;ratioP2
45676;SDS011;31390;51.186;6.830;2022-10-26T00:01:55;10.63;;;4.88;;
45676;SDS011;31390;51.186;6.830;2022-10-26T00:04:22;6.95;;;4.80;;
45676;SDS011;31390;51.186;6.830;2022-10-26T00:06:48;9.13;;;4.68;;
45676;SDS011;31390;51.186;6.830;2022-10-26T00:09:15;8.57;;;5.03;;
45676;SDS011;31390;51.186;6.830;2022-10-26T00:11:41;8.75;;;4.97;;
45676;SDS011;31390;51.186;6.830;2022-10-26T00:14:07;9.30;;;5.70;;
45676;SDS011;31390;51.186;6.830;2022-10-26T00:16:34;8.52;;;5.40;;
45676;SDS011;31390;51.186;6.830;2022-10-26T00:19:00;9.60;;;5.22;;
45676;SDS011;31390;51.186;6.830;2022-10-26T00:21:27;10.32;;;5.28;;
45676;SDS011;31390;51.186;6.830;2022-10-26T00:23:53;9.45;;;5.32;;
45676;SDS011;31390;51.186;6.830;2022-10-26T00:26:19;8.93;;;5.57;;
45676;SDS011;31390;51.186;6.830;2022-10-26T00:28:46;8.35;;;4.57;;
45676;SDS011;31390;51.186;6.830;2022-10-26T00:31:13;6.00;;;4.35;;
45676;SDS011;31390;51.186;6.830;2022-10-26T00:33:40;7.05;;;4.43;;
45676;SDS011;31390;51.186;6.830;2022-10-26T00:36:06;8.50;;;4.88;;
45676;SDS011;31390;51.186;6.830;2022-10-26T00:38:35;9.65;;;5.03;;
45676;SDS011;31390;51.186;6.830;2022-10-26T00:41:02;10.70;;;5.22;;
45676;SDS011;31390;51.186;6.830;2022-10-26T00:45:55;10.02;;;4.43;;
45676;SDS011;31390;51.186;6.830;2022-10-26T00:48:29;9.23;;;4.40;;
45676;SDS011;31390;51.186;6.830;2022-10-26T00:50:58;7.80;;;3.53;;
45676;SDS011;31390;51.186;6.830;2022-10-26T00:53:26;5.55;;;3.55;;
45676;SDS011;31390;51.186;6.830;2022-10-26T00:55:52;7.05;;;4.32;;
45676;SDS011;31390;51.186;6.830;2022-10-26T00:58:19;8.38;;;4.57;;
45676;SDS011;31390;51.186;6.830;2022-10-26T01:00:46;7.53;;;4.40;;
45676;SDS011;31390;51.186;6.830;2022-10-26T01:03:13;7.72;;;4.25;;
45676;SDS011;31390;51.186;6.830;2022-10-26T01:05:41;9.15;;;4.40;;
45676;SDS011;31390;51.186;6.830;2022-10-26T01:08:09;8.60;;;4.40;;
45676;SDS011;31390;51.186;6.830;2022-10-26T01:10:36;7.63;;;4.40;;
45676;SDS011;31390;51.186;6.830;2022-10-26T01:13:03;6.82;;;4.40;;
45676;SDS011;31390;51.186;6.830;2022-10-26T01:15:39;8.30;;;4.15;;
45676;SDS011;31390;51.186;6.830;2022-10-26T01:18:09;8.30;;;4.47;;
45676;SDS011;31390;51.186;6.830;2022-10-26T01:20:44;7.82;;;3.83;;
45676;SDS011;31390;51.186;6.830;2022-10-26T01:23:29;11.00;;;3.92;;
45676;SDS011;31390;51.186;6.830;2022-10-26T01:26:16;6.03;;;4.20;;
45676;SDS011;31390;51.186;6.830;2022-10-26T01:31:17;7.60;;;3.42;;
45676;SDS011;31390;51.186;6.830;2022-10-26T01:33:58;9.38;;;3.97;;
45676;SDS011;31390;51.186;6.830;2022-10-26T01:39:10;7.18;;;2.92;;
45676;SDS011;31390;51.186;6.830;2022-10-26T01:41:51;9.75;;;3.10;;
45676;SDS011;31390;51.186;6.830;2022-10-26T01:44:33;6.00;;;3.28;;
45676;SDS011;31390;51.186;6.830;2022-10-26T01:47:04;5.38;;;2.90;;
45676;SDS011;31390;51.186;6.830;2022-10-26T01:49:32;7.75;;;3.90;;
45676;SDS011;31390;51.186;6.830;2022-10-26T01:52:00;6.45;;;2.95;;
45676;SDS011;31390;51.186;6.830;2022-10-26T01:54:27;6.30;;;3.28;;
45676;SDS011;31390;51.186;6.830;2022-10-26T01:56:55;6.90;;;3.33;;
45676;SDS011;31390;51.186;6.830;2022-10-26T01:59:29;9.02;;;3.15;;
45676;SDS011;31390;51.186;6.830;2022-10-26T02:02:17;5.50;;;3.50;;
45676;SDS011;31390;51.186;6.830;2022-10-26T02:04:54;5.68;;;3.38;;
45676;SDS011;31390;51.186;6.830;2022-10-26T02:07:33;7.53;;;3.92;;
45676;SDS011;31390;51.186;6.830;2022-10-26T02:12:41;5.50;;;3.63;;
45676;SDS011;31390;51.186;6.830;2022-10-26T02:15:14;8.30;;;3.50;;
45676;SDS011;31390;51.186;6.830;2022-10-26T02:17:45;7.65;;;3.90;;
45676;SDS011;31390;51.186;6.830;2022-10-26T02:20:15;6.57;;;3.33;;
45676;SDS011;31390;51.186;6.830;2022-10-26T02:22:44;8.00;;;3.70;;
45676;SDS011;31390;51.186;6.830;2022-10-26T02:25:14;11.52;;;3.70;;
45676;SDS011;31390;51.186;6.830;2022-10-26T02:27:43;6.70;;;3.60;;
45676;SDS011;31390;51.186;6.830;2022-10-26T02:30:12;7.18;;;3.50;;
45676;SDS011;31390;51.186;6.830;2022-10-26T02:32:39;14.40;;;4.15;;
45676;SDS011;31390;51.186;6.830;2022-10-26T02:35:07;4.78;;;2.60;;
45676;SDS011;31390;51.186;6.830;2022-10-26T02:37:34;6.03;;;3.00;;
45676;SDS011;31390;51.186;6.830;2022-10-26T02:40:02;9.77;;;3.63;;
45676;SDS011;31390;51.186;6.830;2022-10-26T02:42:29;7.05;;;2.85;;
45676;SDS011;31390;51.186;6.830;2022-10-26T02:44:58;7.80;;;3.70;;
45676;SDS011;31390;51.186;6.830;2022-10-26T02:47:25;6.68;;;3.03;;
45676;SDS011;31390;51.186;6.830;2022-10-26T02:49:52;9.23;;;3.25;;
45676;SDS011;31390;51.186;6.830;2022-10-26T02:55:06;8.25;;;3.00;;
45676;SDS011;31390;51.186;6.830;2022-10-26T02:57:35;6.07;;;2.72;;
45676;SDS011;31390;51.186;6.830;2022-10-26T03:00:06;6.50;;;2.80;;
45676;SDS011;31390;51.186;6.830;2022-10-26T03:02:33;9.38;;;2.70;;
45676;SDS011;31390;51.186;6.830;2022-10-26T03:05:17;13.43;;;2.40;;
45676;SDS011;31390;51.186;6.830;2022-10-26T03:07:45;5.28;;;2.63;;
45676;SDS011;31390;51.186;6.830;2022-10-26T03:10:11;5.45;;;2.42;;
45676;SDS011;31390;51.186;6.830;2022-10-26T03:12:38;7.70;;;2.63;;
45676;SDS011;31390;51.186;6.830;2022-10-26T03:15:04;7.72;;;2.90;;
45676;SDS011;31390;51.186;6.830;2022-10-26T03:17:31;12.85;;;3.97;;
45676;SDS011;31390;51.186;6.830;2022-10-26T03:19:57;7.10;;;3.45;;
45676;SDS011;31390;51.186;6.830;2022-10-26T03:22:24;9.93;;;3.75;;
45676;SDS011;31390;51.186;6.830;2022-10-26T03:24:50;10.73;;;4.00;;
45676;SDS011;31390;51.186;6.830;2022-10-26T03:27:16;4.38;;;2.85;;
45676;SDS011;31390;51.186;6.830;2022-10-26T03:29:43;10.50;;;4.28;;
45676;SDS011;31390;51.186;6.830;2022-10-26T03:32:09;6.65;;;3.10;;
45676;SDS011;31390;51.186;6.830;2022-10-26T03:34:35;6.63;;;3.30;;
45676;SDS011;31390;51.186;6.830;2022-10-26T03:37:02;6.63;;;3.50;;
45676;SDS011;31390;51.186;6.830;2022-10-26T03:39:28;4.97;;;3.35;;
45676;SDS011;31390;51.186;6.830;2022-10-26T03:41:55;8.20;;;3.40;;
45676;SDS011;31390;51.186;6.830;2022-10-26T03:44:21;7.45;;;3.53;;
45676;SDS011;31390;51.186;6.830;2022-10-26T03:46:48;6.68;;;3.35;;
45676;SDS011;31390;51.186;6.830;2022-10-26T03:49:14;5.13;;;2.75;;
45676;SDS011;31390;51.186;6.830;2022-10-26T03:51:40;7.28;;;3.25;;
45676;SDS011;31390;51.186;6.830;2022-10-26T03:54:07;6.82;;;3.10;;
45676;SDS011;31390;51.186;6.830;2022-10-26T03:56:34;8.88;;;2.70;;
45676;SDS011;31390;51.186;6.830;2022-10-26T03:59:00;8.15;;;4.47;;
45676;SDS011;31390;51.186;6.830;2022-10-26T04:01:26;6.65;;;3.25;;
45676;SDS011;31390;51.186;6.830;2022-10-26T04:03:53;7.25;;;3.13;;
45676;SDS011;31390;51.186;6.830;2022-10-26T04:06:19;5.20;;;2.85;;
45676;SDS011;31390;51.186;6.830;2022-10-26T04:08:46;8.10;;;3.33;;
45676;SDS011;31390;51.186;6.830;2022-10-26T04:11:12;13.90;;;2.97;;
45676;SDS011;31390;51.186;6.830;2022-10-26T04:13:38;7.47;;;3.20;;
45676;SDS011;31390;51.186;6.830;2022-10-26T04:16:05;6.90;;;3.72;;
45676;SDS011;31390;51.186;6.830;2022-10-26T04:18:31;5.50;;;3.42;;
45676;SDS011;31390;51.186;6.830;2022-10-26T04:21:01;7.68;;;3.20;;
45676;SDS011;31390;51.186;6.830;2022-10-26T04:23:27;7.53;;;3.45;;
45676;SDS011;31390;51.186;6.830;2022-10-26T04:25:54;3.83;;;2.75;;
45676;SDS011;31390;51.186;6.830;2022-10-26T04:28:20;6.68;;;3.17;;
45676;SDS011;31390;51.186;6.830;2022-10-26T04:30:46;6.93;;;3.20;;
45676;SDS011;31390;51.186;6.830;2022-10-26T04:33:13;10.38;;;3.58;;
45676;SDS011;31390;51.186;6.830;2022-10-26T04:35:39;8.13;;;3.00;;
45676;SDS011;31390;51.186;6.830;2022-10-26T04:38:06;7.43;;;3.00;;
45676;SDS011;31390;51.186;6.830;2022-10-26T04:40:32;6.78;;;2.60;;
45676;SDS011;31390;51.186;6.830;2022-10-26T04:42:59;6.68;;;3.10;;
45676;SDS011;31390;51.186;6.830;2022-10-26T04:45:26;4.25;;;2.60;;
45676;SDS011;31390;51.186;6.830;2022-10-26T04:48:05;9.90;;;3.03;;
45676;SDS011;31390;51.186;6.830;2022-10-26T04:50:32;5.72;;;2.70;;
45676;SDS011;31390;51.186;6.830;2022-10-26T04:53:01;6.53;;;3.35;;
45676;SDS011;31390;51.186;6.830;2022-10-26T04:55:28;6.30;;;2.72;;
45676;SDS011;31390;51.186;6.830;2022-10-26T04:57:54;5.40;;;1.90;;
45676;SDS011;31390;51.186;6.830;2022-10-26T05:00:26;4.38;;;2.25;;
45676;SDS011;31390;51.186;6.830;2022-10-26T05:02:57;6.07;;;2.03;;
45676;SDS011;31390;51.186;6.830;2022-10-26T05:05:24;9.90;;;2.50;;
45676;SDS011;31390;51.186;6.830;2022-10-26T05:07:54;11.65;;;3.20;;
45676;SDS011;31390;51.186;6.830;2022-10-26T05:10:21;3.88;;;2.13;;
45676;SDS011;31390;51.186;6.830;2022-10-26T05:12:51;9.65;;;3.35;;
45676;SDS011;31390;51.186;6.830;2022-10-26T05:15:18;9.43;;;3.08;;
45676;SDS011;31390;51.186;6.830;2022-10-26T05:17:45;10.40;;;2.85;;
45676;SDS011;31390;51.186;6.830;2022-10-26T05:20:12;11.45;;;2.85;;
45676;SDS011;31390;51.186;6.830;2022-10-26T05:22:40;7.38;;;2.90;;
45676;SDS011;31390;51.186;6.830;2022-10-26T05:25:06;8.38;;;2.90;;
45676;SDS011;31390;51.186;6.830;2022-10-26T05:27:33;5.82;;;3.17;;
45676;SDS011;31390;51.186;6.830;2022-10-26T05:29:59;10.15;;;2.92;;
45676;SDS011;31390;51.186;6.830;2022-10-26T05:32:26;6.38;;;3.15;;
45676;SDS011;31390;51.186;6.830;2022-10-26T05:34:52;7.75;;;2.97;;
45676;SDS011;31390;51.186;6.830;2022-10-26T05:37:18;6.03;;;2.97;;
45676;SDS011;31390;51.186;6.830;2022-10-26T05:39:45;9.10;;;3.15;;
45676;SDS011;31390;51.186;6.830;2022-10-26T05:42:11;6.97;;;2.58;;
45676;SDS011;31390;51.186;6.830;2022-10-26T05:44:38;5.90;;;2.63;;
45676;SDS011;31390;51.186;6.830;2022-10-26T05:47:05;6.60;;;2.70;;
45676;SDS011;31390;51.186;6.830;2022-10-26T05:49:31;9.60;;;2.53;;
45676;SDS011;31390;51.186;6.830;2022-10-26T05:51:57;4.00;;;2.55;;
45676;SDS011;31390;51.186;6.830;2022-10-26T05:54:24;4.85;;;2.60;;
45676;SDS011;31390;51.186;6.830;2022-10-26T05:56:50;6.55;;;2.58;;
45676;SDS011;31390;51.186;6.830;2022-10-26T05:59:18;5.60;;;2.20;;
45676;SDS011;31390;51.186;6.830;2022-10-26T06:01:49;4.13;;;2.65;;
45676;SDS011;31390;51.186;6.830;2022-10-26T06:04:32;5.13;;;2.53;;
45676;SDS011;31390;51.186;6.830;2022-10-26T06:07:08;4.78;;;2.10;;
45676;SDS011;31390;51.186;6.830;2022-10-26T06:09:36;13.45;;;2.53;;
45676;SDS011;31390;51.186;6.830;2022-10-26T06:12:03;6.47;;;2.00;;
45676;SDS011;31390;51.186;6.830;2022-10-26T06:14:30;6.50;;;2.28;;
45676;SDS011;31390;51.186;6.830;2022-10-26T06:24:50;5.93;;;2.10;;
45676;SDS011;31390;51.186;6.830;2022-10-26T06:27:37;5.68;;;3.85;;
45676;SDS011;31390;51.186;6.830;2022-10-26T06:30:07;6.75;;;3.25;;
45676;SDS011;31390;51.186;6.830;2022-10-26T06:32:38;9.88;;;5.22;;
45676;SDS011;31390;51.186;6.830;2022-10-26T06:37:50;10.23;;;4.07;;
45676;SDS011;31390;51.186;6.830;2022-10-26T06:40:18;5.80;;;2.67;;
45676;SDS011;31390;51.186;6.830;2022-10-26T06:42:45;8.32;;;2.83;;
45676;SDS011;31390;51.186;6.830;2022-10-26T06:45:16;6.38;;;2.63;;
45676;SDS011;31390;51.186;6.830;2022-10-26T06:47:53;8.35;;;2.70;;
45676;SDS011;31390;51.186;6.830;2022-10-26T06:52:56;6.47;;;2.65;;
45676;SDS011;31390;51.186;6.830;2022-10-26T06:55:28;3.92;;;2.60;;
45676;SDS011;31390;51.186;6.830;2022-10-26T06:57:56;4.85;;;2.35;;
45676;SDS011;31390;51.186;6.830;2022-10-26T07:00:23;6.05;;;2.50;;
45676;SDS011;31390;51.186;6.830;2022-10-26T07:02:50;7.82;;;2.42;;
45676;SDS011;31390;51.186;6.830;2022-10-26T07:05:17;5.78;;;2.15;;
45676;SDS011;31390;51.186;6.830;2022-10-26T07:07:45;5.95;;;2.20;;
45676;SDS011;31390;51.186;6.830;2022-10-26T07:10:13;5.45;;;2.28;;
45676;SDS011;31390;51.186;6.830;2022-10-26T07:12:40;7.10;;;2.67;;
45676;SDS011;31390;51.186;6.830;2022-10-26T07:15:06;5.88;;;2.20;;
45676;SDS011;31390;51.186;6.830;2022-10-26T07:17:42;6.45;;;2.80;;
45676;SDS011;31390;51.186;6.830;2022-10-26T07:20:10;3.63;;;2.30;;
45676;SDS011;31390;51.186;6.830;2022-10-26T07:22:37;4.72;;;2.08;;
45676;SDS011;31390;51.186;6.830;2022-10-26T07:25:04;7.55;;;2.47;;
45676;SDS011;31390;51.186;6.830;2022-10-26T07:27:32;5.85;;;2.70;;
45676;SDS011;31390;51.186;6.830;2022-10-26T07:29:58;7.13;;;2.67;;
45676;SDS011;31390;51.186;6.830;2022-10-26T07:32:25;4.20;;;2.20;;
45676;SDS011;31390;51.186;6.830;2022-10-26T07:34:51;7.82;;;2.42;;
45676;SDS011;31390;51.186;6.830;2022-10-26T07:37:18;6.63;;;2.78;;
45676;SDS011;31390;51.186;6.830;2022-10-26T07:39:44;4.18;;;2.30;;
45676;SDS011;31390;51.186;6.830;2022-10-26T07:42:11;10.27;;;2.85;;
45676;SDS011;31390;51.186;6.830;2022-10-26T07:44:37;6.30;;;2.90;;
45676;SDS011;31390;51.186;6.830;2022-10-26T07:47:03;7.70;;;2.75;;
45676;SDS011;31390;51.186;6.830;2022-10-26T07:49:32;6.05;;;2.35;;
45676;SDS011;31390;51.186;6.830;2022-10-26T07:51:59;5.28;;;2.20;;
45676;SDS011;31390;51.186;6.830;2022-10-26T07:54:26;4.85;;;2.17;;
45676;SDS011;31390;51.186;6.830;2022-10-26T07:56:52;5.88;;;2.60;;
45676;SDS011;31390;51.186;6.830;2022-10-26T07:59:20;7.50;;;2.95;;
45676;SDS011;31390;51.186;6.830;2022-10-26T08:01:46;4.10;;;2.60;;
45676;SDS011;31390;51.186;6.830;2022-10-26T08:04:13;5.88;;;2.78;;
45676;SDS011;31390;51.186;6.830;2022-10-26T08:06:39;7.07;;;2.40;;
45676;SDS011;31390;51.186;6.830;2022-10-26T08:09:06;5.70;;;2.65;;
45676;SDS011;31390;51.186;6.830;2022-10-26T08:11:32;6.38;;;3.25;;
45676;SDS011;31390;51.186;6.830;2022-10-26T08:14:02;4.45;;;2.35;;
45676;SDS011;31390;51.186;6.830;2022-10-26T08:16:29;4.07;;;2.17;;
45676;SDS011;31390;51.186;6.830;2022-10-26T08:18:56;9.27;;;3.28;;
45676;SDS011;31390;51.186;6.830;2022-10-26T08:21:22;3.72;;;2.28;;
45676;SDS011;31390;51.186;6.830;2022-10-26T08:24:05;8.60;;;3.20;;
45676;SDS011;31390;51.186;6.830;2022-10-26T08:26:31;5.78;;;1.90;;
45676;SDS011;31390;51.186;6.830;2022-10-26T08:28:57;5.93;;;2.25;;
45676;SDS011;31390;51.186;6.830;2022-10-26T08:31:24;7.75;;;2.58;;
45676;SDS011;31390;51.186;6.830;2022-10-26T08:33:50;4.43;;;2.15;;
45676;SDS011;31390;51.186;6.830;2022-10-26T08:36:19;7.07;;;2.30;;
45676;SDS011;31390;51.186;6.830;2022-10-26T08:38:48;6.25;;;2.50;;
45676;SDS011;31390;51.186;6.830;2022-10-26T08:41:15;6.60;;;2.40;;
45676;SDS011;31390;51.186;6.830;2022-10-26T08:43:51;5.68;;;2.17;;
45676;SDS011;31390;51.186;6.830;2022-10-26T08:46:24;5.20;;;2.22;;
45676;SDS011;31390;51.186;6.830;2022-10-26T08:51:39;7.18;;;2.30;;
45676;SDS011;31390;51.186;6.830;2022-10-26T08:54:17;9.23;;;2.40;;
45676;SDS011;31390;51.186;6.830;2022-10-26T08:56:46;7.97;;;2.60;;
45676;SDS011;31390;51.186;6.830;2022-10-26T08:59:36;5.57;;;2.10;;
45676;SDS011;31390;51.186;6.830;2022-10-26T09:02:08;6.05;;;2.42;;
45676;SDS011;31390;51.186;6.830;2022-10-26T09:04:36;5.78;;;2.70;;
45676;SDS011;31390;51.186;6.830;2022-10-26T09:09:55;5.32;;;2.22;;
45676;SDS011;31390;51.186;6.830;2022-10-26T09:15:02;3.40;;;2.20;;
45676;SDS011;31390;51.186;6.830;2022-10-26T09:25:18;7.03;;;2.53;;
45676;SDS011;31390;51.186;6.830;2022-10-26T09:27:47;7.07;;;3.10;;
45676;SDS011;31390;51.186;6.830;2022-10-26T09:30:16;5.28;;;2.47;;
45676;SDS011;31390;51.186;6.830;2022-10-26T09:32:46;4.18;;;2.33;;
45676;SDS011;31390;51.186;6.830;2022-10-26T09:35:25;3.85;;;2.58;;
45676;SDS011;31390;51.186;6.830;2022-10-26T09:37:57;5.72;;;2.60;;
45676;SDS011;31390;51.186;6.830;2022-10-26T09:43:00;7.43;;;2.40;;
45676;SDS011;31390;51.186;6.830;2022-10-26T09:45:34;7.25;;;2.47;;
45676;SDS011;31390;51.186;6.830;2022-10-26T09:48:06;5.00;;;2.30;;
45676;SDS011;31390;51.186;6.830;2022-10-26T09:50:36;5.63;;;2.20;;
45676;SDS011;31390;51.186;6.830;2022-10-26T09:53:04;5.72;;;2.53;;
45676;SDS011;31390;51.186;6.830;2022-10-26T09:55:30;6.78;;;2.45;;
45676;SDS011;31390;51.186;6.830;2022-10-26T09:57:59;7.40;;;2.72;;
45676;SDS011;31390;51.186;6.830;2022-10-26T10:00:28;6.03;;;2.30;;
45676;SDS011;31390;51.186;6.830;2022-10-26T10:02:55;3.08;;;1.90;;
45676;SDS011;31390;51.186;6.830;2022-10-26T10:05:24;5.78;;;2.30;;
45676;SDS011;31390;51.186;6.830;2022-10-26T10:08:14;4.85;;;2.03;;
45676;SDS011;31390;51.186;6.830;2022-10-26T10:13:28;4.10;;;2.53;;
45676;SDS011;31390;51.186;6.830;2022-10-26T10:16:19;5.18;;;2.30;;
45676;SDS011;31390;51.186;6.830;2022-10-26T10:18:47;5.18;;;2.22;;
45676;SDS011;31390;51.186;6.830;2022-10-26T10:21:17;4.57;;;2.30;;
45676;SDS011;31390;51.186;6.830;2022-10-26T10:23:48;7.03;;;2.22;;
45676;SDS011;31390;51.186;6.830;2022-10-26T10:26:14;6.28;;;2.45;;
45676;SDS011;31390;51.186;6.830;2022-10-26T10:28:41;6.70;;;2.40;;
45676;SDS011;31390;51.186;6.830;2022-10-26T10:31:18;5.57;;;2.20;;
45676;SDS011;31390;51.186;6.830;2022-10-26T10:33:45;3.95;;;2.00;;
45676;SDS011;31390;51.186;6.830;2022-10-26T10:36:15;5.25;;;2.33;;
45676;SDS011;31390;51.186;6.830;2022-10-26T10:38:45;5.40;;;2.30;;
45676;SDS011;31390;51.186;6.830;2022-10-26T10:41:32;5.35;;;2.88;;
45676;SDS011;31390;51.186;6.830;2022-10-26T10:44:04;4.63;;;2.50;;
45676;SDS011;31390;51.186;6.830;2022-10-26T10:46:37;7.03;;;2.58;;
45676;SDS011;31390;51.186;6.830;2022-10-26T10:49:04;5.47;;;2.33;;
45676;SDS011;31390;51.186;6.830;2022-10-26T10:51:38;4.82;;;2.33;;
45676;SDS011;31390;51.186;6.830;2022-10-26T10:54:05;5.10;;;1.92;;
45676;SDS011;31390;51.186;6.830;2022-10-26T10:59:07;5.82;;;2.33;;
45676;SDS011;31390;51.186;6.830;2022-10-26T11:01:39;5.57;;;2.50;;
45676;SDS011;31390;51.186;6.830;2022-10-26T11:06:47;6.07;;;2.38;;
45676;SDS011;31390;51.186;6.830;2022-10-26T11:09:14;6.38;;;3.10;;
45676;SDS011;31390;51.186;6.830;2022-10-26T11:14:18;5.68;;;2.58;;
45676;SDS011;31390;51.186;6.830;2022-10-26T11:16:49;8.65;;;2.55;;
45676;SDS011;31390;51.186;6.830;2022-10-26T11:19:22;6.28;;;2.55;;
45676;SDS011;31390;51.186;6.830;2022-10-26T11:21:52;14.23;;;2.65;;
45676;SDS011;31390;51.186;6.830;2022-10-26T11:24:28;4.68;;;2.00;;
45676;SDS011;31390;51.186;6.830;2022-10-26T11:26:58;4.95;;;1.60;;
45676;SDS011;31390;51.186;6.830;2022-10-26T11:29:30;3.13;;;1.60;;
45676;SDS011;31390;51.186;6.830;2022-10-26T11:32:18;4.32;;;1.88;;
45676;SDS011;31390;51.186;6.830;2022-10-26T11:35:04;2.40;;;1.13;;
45676;SDS011;31390;51.186;6.830;2022-10-26T11:37:46;2.33;;;1.23;;
45676;SDS011;31390;51.186;6.830;2022-10-26T11:40:17;6.85;;;1.85;;
45676;SDS011;31390;51.186;6.830;2022-10-26T11:42:49;2.58;;;1.40;;
45676;SDS011;31390;51.186;6.830;2022-10-26T11:45:24;3.67;;;1.10;;
45676;SDS011;31390;51.186;6.830;2022-10-26T11:48:03;4.60;;;1.30;;
45676;SDS011;31390;51.186;6.830;2022-10-26T11:50:33;4.22;;;1.73;;
45676;SDS011;31390;51.186;6.830;2022-10-26T11:53:04;4.07;;;1.10;;
45676;SDS011;31390;51.186;6.830;2022-10-26T11:55:34;1.75;;;0.80;;
45676;SDS011;31390;51.186;6.830;2022-10-26T11:58:01;3.22;;;1.00;;
45676;SDS011;31390;51.186;6.830;2022-10-26T12:00:28;4.05;;;1.00;;
45676;SDS011;31390;51.186;6.830;2022-10-26T12:03:01;5.22;;;1.10;;
45676;SDS011;31390;51.186;6.830;2022-10-26T12:05:41;2.65;;;1.00;;
45676;SDS011;31390;51.186;6.830;2022-10-26T12:08:13;3.38;;;1.13;;
45676;SDS011;31390;51.186;6.830;2022-10-26T12:10:40;3.33;;;1.45;;
45676;SDS011;31390;51.186;6.830;2022-10-26T12:13:13;1.73;;;0.80;;
45676;SDS011;31390;51.186;6.830;2022-10-26T12:15:52;3.60;;;1.00;;
45676;SDS011;31390;51.186;6.830;2022-10-26T12:18:51;8.75;;;0.93;;
45676;SDS011;31390;51.186;6.830;2022-10-26T12:21:28;2.17;;;1.13;;
45676;SDS011;31390;51.186;6.830;2022-10-26T12:23:57;2.63;;;1.15;;
45676;SDS011;31390;51.186;6.830;2022-10-26T12:34:04;5.32;;;1.15;;
45676;SDS011;31390;51.186;6.830;2022-10-26T12:41:55;3.10;;;1.00;;
45676;SDS011;31390;51.186;6.830;2022-10-26T12:47:08;5.85;;;1.20;;
45676;SDS011;31390;51.186;6.830;2022-10-26T12:52:20;6.50;;;1.25;;
45676;SDS011;31390;51.186;6.830;2022-10-26T12:55:00;2.58;;;1.20;;
45676;SDS011;31390;51.186;6.830;2022-10-26T13:00:23;3.83;;;1.15;;
45676;SDS011;31390;51.186;6.830;2022-10-26T13:07:52;2.60;;;0.98;;
45676;SDS011;31390;51.186;6.830;2022-10-26T13:10:26;3.30;;;1.30;;
45676;SDS011;31390;51.186;6.830;2022-10-26T13:12:53;6.50;;;0.93;;
45676;SDS011;31390;51.186;6.830;2022-10-26T13:23:29;4.03;;;1.27;;
45676;SDS011;31390;51.186;6.830;2022-10-26T13:26:00;2.17;;;1.10;;
45676;SDS011;31390;51.186;6.830;2022-10-26T13:28:30;3.00;;;1.08;;
45676;SDS011;31390;51.186;6.830;2022-10-26T13:30:57;6.15;;;1.13;;
45676;SDS011;31390;51.186;6.830;2022-10-26T13:33:29;4.07;;;1.42;;
45676;SDS011;31390;51.186;6.830;2022-10-26T13:36:05;2.80;;;1.20;;
45676;SDS011;31390;51.186;6.830;2022-10-26T13:38:36;1.63;;;1.10;;
45676;SDS011;31390;51.186;6.830;2022-10-26T13:41:04;3.70;;;1.20;;
45676;SDS011;31390;51.186;6.830;2022-10-26T13:43:32;2.53;;;1.20;;
45676;SDS011;31390;51.186;6.830;2022-10-26T13:45:59;2.45;;;1.20;;
45676;SDS011;31390;51.186;6.830;2022-10-26T13:48:30;4.32;;;1.55;;
45676;SDS011;31390;51.186;6.830;2022-10-26T13:51:00;4.55;;;1.35;;
45676;SDS011;31390;51.186;6.830;2022-10-26T13:53:31;2.47;;;1.25;;
45676;SDS011;31390;51.186;6.830;2022-10-26T13:56:56;4.80;;;1.55;;
45676;SDS011;31390;51.186;6.830;2022-10-26T13:58:57;2.85;;;1.20;;
45676;SDS011;31390;51.186;6.830;2022-10-26T14:01:25;3.10;;;1.23;;
45676;SDS011;31390;51.186;6.830;2022-10-26T14:03:54;2.03;;;0.93;;
45676;SDS011;31390;51.186;6.830;2022-10-26T14:06:27;5.78;;;1.20;;
45676;SDS011;31390;51.186;6.830;2022-10-26T14:08:57;2.33;;;1.23;;
45676;SDS011;31390;51.186;6.830;2022-10-26T14:11:27;3.95;;;1.25;;
45676;SDS011;31390;51.186;6.830;2022-10-26T14:13:56;2.58;;;1.00;;
45676;SDS011;31390;51.186;6.830;2022-10-26T14:16:23;3.08;;;1.10;;
45676;SDS011;31390;51.186;6.830;2022-10-26T14:18:51;1.33;;;1.00;;
45676;SDS011;31390;51.186;6.830;2022-10-26T14:21:19;3.08;;;1.00;;
45676;SDS011;31390;51.186;6.830;2022-10-26T14:23:56;2.47;;;1.00;;
45676;SDS011;31390;51.186;6.830;2022-10-26T14:26:25;2.40;;;0.80;;
45676;SDS011;31390;51.186;6.830;2022-10-26T14:28:53;3.67;;;1.30;;
45676;SDS011;31390;51.186;6.830;2022-10-26T14:31:21;4.53;;;1.20;;
45676;SDS011;31390;51.186;6.830;2022-10-26T14:33:48;2.53;;;1.33;;
45676;SDS011;31390;51.186;6.830;2022-10-26T14:36:14;3.55;;;0.93;;
45676;SDS011;31390;51.186;6.830;2022-10-26T14:38:43;2.35;;;1.00;;
45676;SDS011;31390;51.186;6.830;2022-10-26T14:41:10;5.80;;;1.60;;
45676;SDS011;31390;51.186;6.830;2022-10-26T14:43:39;3.25;;;0.95;;
45676;SDS011;31390;51.186;6.830;2022-10-26T14:46:11;1.42;;;0.80;;
45676;SDS011;31390;51.186;6.830;2022-10-26T14:48:38;5.10;;;1.13;;
45676;SDS011;31390;51.186;6.830;2022-10-26T14:51:14;3.42;;;1.50;;
45676;SDS011;31390;51.186;6.830;2022-10-26T14:53:46;1.05;;;0.80;;
45676;SDS011;31390;51.186;6.830;2022-10-26T14:56:21;6.70;;;1.30;;
45676;SDS011;31390;51.186;6.830;2022-10-26T14:58:48;4.80;;;1.45;;
45676;SDS011;31390;51.186;6.830;2022-10-26T15:03:59;2.85;;;1.20;;
45676;SDS011;31390;51.186;6.830;2022-10-26T15:08:53;2.58;;;0.98;;
45676;SDS011;31390;51.186;6.830;2022-10-26T15:11:22;5.53;;;1.27;;
45676;SDS011;31390;51.186;6.830;2022-10-26T15:13:49;8.00;;;1.80;;
45676;SDS011;31390;51.186;6.830;2022-10-26T15:16:23;1.30;;;1.08;;
45676;SDS011;31390;51.186;6.830;2022-10-26T15:18:51;2.10;;;1.10;;
45676;SDS011;31390;51.186;6.830;2022-10-26T15:21:23;3.88;;;1.30;;
45676;SDS011;31390;51.186;6.830;2022-10-26T15:23:52;2.50;;;1.23;;
45676;SDS011;31390;51.186;6.830;2022-10-26T15:26:19;4.32;;;1.40;;
45676;SDS011;31390;51.186;6.830;2022-10-26T15:28:46;3.47;;;1.35;;
45676;SDS011;31390;51.186;6.830;2022-10-26T15:33:42;2.28;;;1.00;;
45676;SDS011;31390;51.186;6.830;2022-10-26T15:36:16;3.25;;;1.25;;
45676;SDS011;31390;51.186;6.830;2022-10-26T15:38:43;4.43;;;1.52;;
45676;SDS011;31390;51.186;6.830;2022-10-26T15:43:46;3.13;;;1.17;;
45676;SDS011;31390;51.186;6.830;2022-10-26T15:46:12;2.70;;;1.45;;
45676;SDS011;31390;51.186;6.830;2022-10-26T15:48:39;5.05;;;1.55;;
45676;SDS011;31390;51.186;6.830;2022-10-26T15:51:11;3.97;;;1.20;;
45676;SDS011;31390;51.186;6.830;2022-10-26T15:53:42;4.85;;;1.60;;
45676;SDS011;31390;51.186;6.830;2022-10-26T15:56:12;4.32;;;1.42;;
45676;SDS011;31390;51.186;6.830;2022-10-26T15:58:39;5.57;;;1.50;;
45676;SDS011;31390;51.186;6.830;2022-10-26T16:01:06;4.22;;;1.83;;
45676;SDS011;31390;51.186;6.830;2022-10-26T16:03:32;4.47;;;1.60;;
45676;SDS011;31390;51.186;6.830;2022-10-26T16:05:59;6.03;;;1.70;;
45676;SDS011;31390;51.186;6.830;2022-10-26T16:08:27;2.65;;;1.60;;
45676;SDS011;31390;51.186;6.830;2022-10-26T16:10:54;5.90;;;1.90;;
45676;SDS011;31390;51.186;6.830;2022-10-26T16:13:21;2.65;;;1.88;;
45676;SDS011;31390;51.186;6.830;2022-10-26T16:15:47;2.63;;;1.70;;
45676;SDS011;31390;51.186;6.830;2022-10-26T16:18:14;3.92;;;1.80;;
45676;SDS011;31390;51.186;6.830;2022-10-26T16:20:43;5.63;;;1.80;;
45676;SDS011;31390;51.186;6.830;2022-10-26T16:23:10;4.35;;;1.80;;
45676;SDS011;31390;51.186;6.830;2022-10-26T16:25:40;3.67;;;1.95;;
45676;SDS011;31390;51.186;6.830;2022-10-26T16:28:08;3.83;;;1.77;;
45676;SDS011;31390;51.186;6.830;2022-10-26T16:30:35;5.00;;;1.80;;
45676;SDS011;31390;51.186;6.830;2022-10-26T16:33:02;2.00;;;1.67;;
45676;SDS011;31390;51.186;6.830;2022-10-26T16:35:29;2.45;;;1.80;;
45676;SDS011;31390;51.186;6.830;2022-10-26T16:37:55;4.10;;;1.83;;
45676;SDS011;31390;51.186;6.830;2022-10-26T16:40:21;2.65;;;1.60;;
45676;SDS011;31390;51.186;6.830;2022-10-26T16:42:48;3.00;;;1.80;;